Sunday, July 22, 2018, 8:11 PM EDT
Back to Local

KDSV, Dansville Municipal Airport

Location: Dansville, NY, United States Lat: 42.567
Local Time: 8:11 PM EDT ( 0:11 GMT) Lon: -77.717
Time Zone: US/Eastern Elev: 662 ft

Show me the last for .
Show Decoded

2018-07-22 19:54 METAR KDSV 222354Z AUTO 19003KT 10SM FEW060 BKN100 25/17 A2990 RMK AO2 RAE35
                 SLP130 P0000 60000 T02500172 10278 20250 52016 =
2018-07-22 18:54 METAR KDSV 222254Z AUTO 18011KT 10SM -RA FEW045 26/17 A2989 RMK AO2 SLP125 P0000
                 T02610167 =
2018-07-22 17:54 METAR KDSV 222154Z AUTO 15016G23KT 10SM -RA BKN044 28/17 A2987 RMK AO2 SLP119
                 P0000 T02780167 =
2018-07-22 16:54 METAR KDSV 222054Z AUTO 15018G24KT 10SM -RA FEW039 SCT120 27/17 A2985 RMK AO2 PK
                 WND 18026/2010 SLP114 P0000 60000 T02720167 51020 =
2018-07-22 15:54 METAR KDSV 221954Z AUTO 15015G24KT 10SM -RA SCT036 27/17 A2985 RMK AO2 PK WND
                 16026/1900 SLP112 P0000 T02670167 =
2018-07-22 14:54 METAR KDSV 221854Z AUTO 15011G24KT 10SM -RA SCT034 27/17 A2983 RMK AO2 PK WND
                 14026/1807 SLP105 P0000 T02670172 =
2018-07-22 13:54 METAR KDSV 221754Z AUTO 15017KT 10SM -RA SCT033 27/17 A2979 RMK AO2 SLP093 P0000
                 60006 T02670172 10267 20172 51016 =
2018-07-22 12:54 METAR KDSV 221654Z AUTO 16015KT 10SM -RA BKN030 25/17 A2978 RMK AO2 RAB1558
                 SLP089 P0000 T02500167 =
2018-07-22 12:45 METAR KDSV 221645Z AUTO 16016KT 10SM -RA SCT028 25/17 A2978 RMK AO2 RAB1558
                 P0000 T02500172 =
2018-07-22 11:54 METAR KDSV 221554Z AUTO 17010G18KT 10SM OVC029 23/17 A2976 RMK AO2 RAB14E54
                 SLP083 P0000 T02330167 =
2018-07-22 11:46 METAR KDSV 221546Z AUTO 16008KT 10SM -RA OVC029 23/18 A2976 RMK AO2 RAB14 P0000
                 T02330178 =
2018-07-22 10:54 METAR KDSV 221454Z AUTO 11006KT 10SM SCT024 OVC032 21/18 A2975 RMK AO2 SLP079
                 60006 T02060178 53011 =
2018-07-22 10:17 METAR KDSV 221417Z AUTO VRB03KT 10SM SCT006 BKN025 BKN046 20/18 A2973 RMK AO2
                 T02000178 =
2018-07-22 09:54 METAR KDSV 221354Z AUTO 00000KT 9SM BKN006 OVC022 19/17 A2971 RMK AO2 RAE48
                 SLP069 P0003 T01890172 =
2018-07-22 09:38 METAR KDSV 221338Z AUTO 00000KT 3SM -RA BR BKN006 OVC021 18/17 A2972 RMK AO2
                 P0003 T01830167 =
2018-07-22 09:30 METAR KDSV 221330Z AUTO 06003KT 2SM -RA BR BKN004 OVC021 18/17 A2971 RMK AO2
                 P0003 T01830167 =
2018-07-22 09:07 METAR KDSV 221307Z AUTO 00000KT 1 3/4SM -RA BR BKN004 OVC010 18/17 A2972 RMK AO2
                 CIG 003V006 P0001 T01780167 =
2018-07-22 09:00 METAR KDSV 221300Z AUTO 00000KT 3SM -RA BR BKN004 OVC010 18/17 A2972 RMK AO2 CIG
                 003V006 P0000 T01780167 =
2018-07-22 08:54 METAR KDSV 221254Z AUTO 00000KT 3SM -RA BR BKN008 OVC012 18/17 A2972 RMK AO2 CIG
                 003V010 SLP070 P0003 T01780167 =
2018-07-22 08:43 METAR KDSV 221243Z AUTO 33003KT 2SM -RA BR SCT004 OVC010 18/16 A2971 RMK AO2 CIG
                 008V013 P0003 T01780161 =
2018-07-22 08:20 METAR KDSV 221220Z AUTO VRB03KT 1 1/2SM -RA BR OVC003 17/16 A2971 RMK AO2 CIG
                 002V007 P0001 T01720161 =
2018-07-22 07:54 METAR KDSV 221154Z AUTO 31003KT 2SM -RA BR OVC003 17/16 A2971 RMK AO2 SLP068
                 P0021 60103 70124 T01720161 10172 20150 56019 =
2018-07-22 07:41 METAR KDSV 221141Z AUTO 34004KT 1 3/4SM -RA BR OVC004 17/16 A2971 RMK AO2 P0020
                 T01720161 =
2018-07-22 07:26 METAR KDSV 221126Z AUTO 00000KT 2SM -RA BR OVC004 17/16 A2972 RMK AO2 P0017
                 T01670156 =
2018-07-22 07:13 METAR KDSV 221113Z AUTO 35004KT 1SM +RA BR OVC005 17/16 A2972 RMK AO2 P0015
                 T01670156 =
2018-07-22 06:54 METAR KDSV 221054Z AUTO 00000KT 1 3/4SM RA BR OVC004 17/15 A2973 RMK AO2 SLP075
                 P0024 T01670150 =
2018-07-22 06:39 METAR KDSV 221039Z AUTO 00000KT 2SM RA BR BKN004 BKN009 OVC016 17/16 A2973 RMK
                 AO2 P0020 T01670156 =
2018-07-22 06:21 METAR KDSV 221021Z AUTO 30008KT 1 3/4SM +RA BR FEW004 BKN008 OVC016 17/15 A2973
                 RMK AO2 VIS 3/4V5 LTG DSNT NW P0010 T01670150 =
2018-07-22 06:17 METAR KDSV 221017Z AUTO 28007KT 4SM -RA BR FEW004 BKN008 OVC022 17/15 A2973 RMK
                 AO2 LTG DSNT NW P0006 T01670150 =
2018-07-22 06:10 METAR KDSV 221010Z AUTO 30007KT 5SM VCTS -RA BR BKN006 BKN016 OVC024 17/15 A2973
                 RMK AO2 LTG DSNT W AND NW P0005 T01670150 =
2018-07-22 06:03 METAR KDSV 221003Z AUTO 31007KT 2 1/2SM VCTS RA BR SCT004 BKN016 OVC022 17/15
                 A2973 RMK AO2 LTG DSNT W P0005 T01670150 =
2018-07-22 05:54 METAR KDSV 220954Z AUTO 31011KT 2SM VCTS +RA BR BKN016 BKN024 OVC031 17/15 A2973
                 RMK AO2 LTG DSNT E AND W SLP072 P0036 T01670150 =
2018-07-22 05:28 METAR KDSV 220928Z AUTO 30008KT 2 1/2SM VCTS +RA BR OVC016 17/15 A2975 RMK AO2
                 LTG DSNT SE-SW P0013 T01670150 =
2018-07-22 04:54 METAR KDSV 220854Z AUTO 31008KT 5SM RA BR FEW002 OVC017 16/15 A2977 RMK AO2
                 SLP085 P0007 60022 T01610150 58041 =
2018-07-22 04:44 METAR KDSV 220844Z AUTO 31006KT 4SM RA BR SCT002 OVC017 16/15 A2978 RMK AO2
                 PRESFR P0004 T01610150 =
2018-07-22 04:02 METAR KDSV 220802Z AUTO 30004KT 5SM -RA BR BKN003 OVC018 16/14 A2982 RMK AO2
                 P0000 T01560144 =
2018-07-22 03:54 METAR KDSV 220754Z AUTO 31004KT 4SM -RA BR FEW003 BKN016 OVC022 16/14 A2983 RMK
                 AO2 SLP106 P0008 T01560139 =
2018-07-22 03:15 METAR KDSV 220715Z AUTO 33004KT 5SM RA BR SCT005 BKN019 OVC034 15/14 A2986 RMK
                 AO2 P0003 T01500139 =
2018-07-22 02:54 METAR KDSV 220654Z AUTO 00000KT 5SM -RA BR BKN005 BKN036 OVC043 15/14 A2987 RMK
                 AO2 SLP119 P0007 T01500139 =
2018-07-22 02:38 METAR KDSV 220638Z AUTO 00000KT 6SM RA BR FEW008 SCT034 OVC047 16/14 A2987 RMK
                 AO2 P0004 T01560139 =
2018-07-22 01:54 METAR KDSV 220554Z AUTO 31003KT 7SM -RA SCT070 SCT090 OVC110 16/14 A2989 RMK AO2
                 SLP127 P0006 60021 T01560139 10172 20150 58026 =
2018-07-22 00:54 METAR KDSV 220454Z AUTO 14003KT 10SM -RA FEW035 BKN110 16/13 A2992 RMK AO2
                 RAE20B37 SLP137 P0001 T01560133 402720156 =
2018-07-21 23:54 METAR KDSV 220354Z AUTO 00000KT 10SM -RA SCT046 OVC100 16/13 A2994 RMK AO2
                 SLP146 P0002 T01560133 =
2018-07-21 22:54 METAR KDSV 220254Z AUTO VRB04KT 10SM -RA FEW044 SCT095 BKN120 16/13 A2997 RMK
                 AO2 SLP154 P0006 60012 T01610133 58003 =
2018-07-21 21:54 METAR KDSV 220154Z AUTO VRB06KT 7SM -RA BKN085 OVC110 17/15 A2999 RMK AO2 SLP159
                 P0003 T01720150 =
2018-07-21 20:54 METAR KDSV 220054Z AUTO 19004KT 10SM -RA BKN120 17/15 A2998 RMK AO2 SLP157 P0003
                 T01720150 =

Support USWX by starting your Amazon purchase here.